KLWC

Lawrence Municipal Airport

Lawrence, Kansas, USA
METAR KLWC 140652Z AUTO 35010KT 5SM BR OVC007 02/00 A3013 RMK AO2 SLP210 T00220000
Observed Flight Rules
Dec-14 @ 06:52 UTC (an hour ago) Instrument Flight Rules
Wind Visibility Clouds Conditions
350° at 10 knots 5 miles
  • Overcast at 700' AGL
  • Mist
Temperatures Readings
Current 2°C / 36°F
Dewpoint 0°C / 32°F
Humidity 87%
Altimeter 30.13" Hg
Pressure 1021 hPa
Elevation 253
METAR KLWC 140652Z AUTO 35010KT 5SM BR OVC007 02/00 A3013 RMK AO2 SLP210 T00220000
Observed Flight Rules
Dec-14 @ 06:52 UTC
(an hour ago)
IFR
Wind Visibility
350° at 10 knots 5 miles
Clouds
  • Overcast at 700' AGL
Conditions
  • Mist
Temperature Dewpoint
2°C / 36°F 0°C / 32°F
Humidity Altimeter Pressure
87% 30.13" Hg 1021 hPa